Time;durP1;ratioP1;P1;durP2;ratioP2;P2;SDS_P1;SDS_P2;PMS_P1;PMS_P2;Temp;Humidity;BMP_temperature;BMP_pressure;BME280_temperature;BME280_humidity;BME280_pressure;Samples;Min_cycle;Max_cycle;Signal;HPM_P1;HPM_P2
2021/01/11 00:00:24;;;;;;;36.10;18.30;;;-2.90;99.90;;;;;;5010288;28;20466;-53
2021/01/11 00:02:53;;;;;;;32.30;16.75;;;-2.80;99.90;;;;;;5011358;28;20397;-55
2021/01/11 00:05:19;;;;;;;32.90;17.70;;;-2.80;99.90;;;;;;5009342;28;20396;-54
2021/01/11 00:07:45;;;;;;;31.90;17.05;;;-2.70;99.90;;;;;;5010648;28;20870;-55
2021/01/11 00:10:12;;;;;;;31.17;17.60;;;-2.70;99.90;;;;;;5009472;28;20432;-55
2021/01/11 00:12:39;;;;;;;35.38;17.45;;;-2.80;99.90;;;;;;5010064;28;20619;-55
2021/01/11 00:15:06;;;;;;;32.60;17.10;;;-2.90;99.90;;;;;;5008478;28;20462;-54
2021/01/11 00:17:32;;;;;;;35.15;18.60;;;-2.90;99.90;;;;;;5010419;28;20425;-55
2021/01/11 00:19:58;;;;;;;35.17;18.90;;;-2.90;99.90;;;;;;5009547;28;20917;-55
2021/01/11 00:22:23;;;;;;;37.10;19.65;;;-2.70;99.90;;;;;;5010423;28;20385;-55
2021/01/11 00:24:49;;;;;;;34.13;19.45;;;-2.60;99.90;;;;;;5009593;28;20404;-54
2021/01/11 00:27:14;;;;;;;32.60;18.63;;;-2.40;99.90;;;;;;5010811;28;20424;-54
2021/01/11 00:29:40;;;;;;;40.03;20.70;;;-2.50;99.90;;;;;;5010066;28;20489;-55
2021/01/11 00:32:06;;;;;;;35.10;19.17;;;-2.50;99.90;;;;;;5009496;28;20409;-55
2021/01/11 00:34:31;;;;;;;33.65;18.75;;;-2.40;99.90;;;;;;5008712;28;20413;-55
2021/01/11 00:37:00;;;;;;;31.17;18.60;;;-0.20;99.90;;;;;;5009203;28;20416;-55
2021/01/11 00:39:28;;;;;;;32.25;17.05;;;-2.30;99.90;;;;;;5010064;28;20384;-54
2021/01/11 00:42:01;;;;;;;38.33;18.88;;;0.30;99.90;;;;;;5008974;28;20409;-55
2021/01/11 00:44:28;;;;;;;36.38;19.58;;;-2.50;99.90;;;;;;5009306;28;20385;-55
2021/01/11 00:47:00;;;;;;;34.92;17.63;;;-2.70;99.90;;;;;;5009803;28;20400;-55
2021/01/11 00:49:27;;;;;;;33.55;18.65;;;-2.70;99.90;;;;;;5009516;28;20508;-54
2021/01/11 00:51:53;;;;;;;33.28;18.33;;;-2.70;99.90;;;;;;5010673;28;20391;-55
2021/01/11 00:54:19;;;;;;;33.75;18.42;;;-2.50;99.90;;;;;;5008833;28;20786;-54
2021/01/11 00:56:44;;;;;;;36.90;19.10;;;-2.90;99.90;;;;;;5009741;28;20405;-55
2021/01/11 00:59:10;;;;;;;36.90;18.73;;;-2.90;99.90;;;;;;5010229;28;20442;-54
2021/01/11 01:01:35;;;;;;;36.40;19.60;;;-3.00;99.90;;;;;;5007684;28;20467;-55
2021/01/11 01:04:01;;;;;;;39.97;19.87;;;-3.00;99.90;;;;;;5010434;28;20470;-55
2021/01/11 01:06:27;;;;;;;33.42;17.85;;;-3.10;99.90;;;;;;5008050;28;20440;-55
2021/01/11 01:08:53;;;;;;;35.40;19.30;;;-3.10;99.90;;;;;;5009327;28;20508;-55
2021/01/11 01:11:19;;;;;;;41.03;20.07;;;-2.30;99.90;;;;;;5009312;28;20401;-55
2021/01/11 01:13:47;;;;;;;35.43;19.30;;;-3.10;99.90;;;;;;5009427;28;20377;-55
2021/01/11 01:16:13;;;;;;;37.58;20.05;;;-1.00;99.90;;;;;;5009023;28;20420;-55
2021/01/11 01:18:39;;;;;;;34.90;19.40;;;-3.20;99.90;;;;;;5007918;28;20416;-55
2021/01/11 01:21:05;;;;;;;35.88;19.60;;;-3.20;99.90;;;;;;5010307;28;20476;-55
2021/01/11 01:23:30;;;;;;;42.25;21.67;;;-3.20;99.90;;;;;;5007426;28;20468;-55
2021/01/11 01:25:56;;;;;;;44.88;26.55;;;-3.20;99.90;;;;;;5009869;28;20435;-55
2021/01/11 01:28:22;;;;;;;42.92;23.88;;;-3.10;99.90;;;;;;5007679;28;20399;-55
2021/01/11 01:30:48;;;;;;;34.17;19.57;;;-3.00;99.90;;;;;;5009736;28;20436;-55
2021/01/11 01:33:13;;;;;;;37.43;19.93;;;-3.00;99.90;;;;;;5008215;28;20928;-54
2021/01/11 01:35:39;;;;;;;35.80;18.40;;;-3.00;99.90;;;;;;5008750;28;20446;-55
2021/01/11 01:38:04;;;;;;;38.22;20.23;;;-3.10;99.90;;;;;;5009391;28;20393;-54
2021/01/11 01:40:30;;;;;;;37.37;20.43;;;-3.20;99.90;;;;;;5008063;28;20754;-55
2021/01/11 01:42:57;;;;;;;37.87;19.63;;;-3.30;99.90;;;;;;5009479;28;20381;-55
2021/01/11 01:45:24;;;;;;;38.88;19.48;;;-3.30;99.90;;;;;;5008673;28;20477;-54
2021/01/11 01:47:50;;;;;;;32.70;17.77;;;-3.40;99.90;;;;;;5008852;28;20401;-55
2021/01/11 01:50:16;;;;;;;35.28;19.40;;;-3.40;99.90;;;;;;5009826;28;20385;-55
2021/01/11 01:52:43;;;;;;;38.13;20.65;;;-3.40;99.90;;;;;;5007254;28;20397;-55
2021/01/11 01:55:11;;;;;;;34.77;18.40;;;-3.50;99.90;;;;;;5009409;28;20387;-55
2021/01/11 01:57:37;;;;;;;37.35;18.90;;;-3.40;99.90;;;;;;5011576;28;20412;-55
2021/01/11 02:00:06;;;;;;;37.97;18.50;;;-3.40;99.90;;;;;;5013811;28;20472;-54
2021/01/11 02:02:32;;;;;;;33.15;18.88;;;-3.30;99.90;;;;;;5012480;28;20395;-54
2021/01/11 02:04:58;;;;;;;35.75;17.40;;;-3.40;99.90;;;;;;5011887;28;20401;-54
2021/01/11 02:07:48;;;;;;;35.88;20.40;;;-3.40;99.90;;;;;;5013470;28;20430;-54
2021/01/11 02:10:47;;;;;;;34.95;19.10;;;-3.50;99.90;;;;;;5011843;28;20897;-54
2021/01/11 02:13:30;;;;;;;34.47;19.20;;;-3.50;99.90;;;;;;5007723;28;20438;-54
2021/01/11 02:16:29;;;;;;;34.83;19.65;;;-3.60;99.90;;;;;;5013046;28;20408;-54
2021/01/11 02:19:00;;;;;;;38.22;19.70;;;-3.80;99.90;;;;;;5011312;28;20463;-54
2021/01/11 02:21:50;;;;;;;39.40;21.17;;;-3.90;99.90;;;;;;5013070;28;20766;-53
2021/01/11 02:24:46;;;;;;;35.58;18.95;;;-3.90;99.90;;;;;;5011696;28;20405;-54
2021/01/11 02:27:33;;;;;;;41.35;19.88;;;-3.80;99.90;;;;;;4993644;28;20391;-55
2021/01/11 02:30:05;;;;;;;38.10;20.30;;;-3.80;99.90;;;;;;5009242;28;20388;-54
2021/01/11 02:32:31;;;;;;;35.00;20.13;;;-3.80;99.90;;;;;;5010522;28;20415;-54
2021/01/11 02:35:04;;;;;;;39.47;20.30;;;-3.80;99.90;;;;;;5012972;28;20385;-54
2021/01/11 02:37:31;;;;;;;38.80;20.60;;;-3.80;99.90;;;;;;5012385;28;20416;-54
2021/01/11 02:39:57;;;;;;;35.72;18.88;;;-3.80;99.90;;;;;;5011526;28;20408;-55
2021/01/11 02:42:22;;;;;;;33.33;18.07;;;-3.80;99.90;;;;;;5011691;28;20762;-54
2021/01/11 02:44:48;;;;;;;32.87;17.87;;;-3.70;99.90;;;;;;5011702;28;20482;-54
2021/01/11 02:47:18;;;;;;;36.10;19.40;;;-3.70;99.90;;;;;;5012887;28;20396;-54
2021/01/11 02:49:50;;;;;;;37.23;18.17;;;-3.70;99.90;;;;;;5010461;28;21068;-55
2021/01/11 02:52:38;;;;;;;35.25;18.27;;;-3.60;99.90;;;;;;5012804;28;20387;-55
2021/01/11 02:55:12;;;;;;;35.50;18.40;;;-3.70;99.90;;;;;;5011252;28;20425;-54
2021/01/11 02:58:03;;;;;;;38.60;18.70;;;-3.70;99.90;;;;;;5011934;28;20403;-54
2021/01/11 03:00:35;;;;;;;36.55;18.75;;;-3.70;99.90;;;;;;4982686;28;20471;-52
2021/01/11 03:03:04;;;;;;;37.58;19.33;;;-3.80;99.90;;;;;;5010923;28;20459;-52
2021/01/11 03:05:31;;;;;;;34.20;19.15;;;-3.90;99.90;;;;;;5011333;28;20816;-55
2021/01/11 03:07:58;;;;;;;33.67;17.25;;;-4.00;99.90;;;;;;5010401;28;20436;-54
2021/01/11 03:10:24;;;;;;;34.90;19.65;;;-4.00;99.90;;;;;;5010356;28;20831;-54
2021/01/11 03:12:50;;;;;;;31.75;17.75;;;-4.10;99.90;;;;;;5012516;28;20396;-54
2021/01/11 03:15:16;;;;;;;36.42;17.73;;;-4.10;99.90;;;;;;5010372;28;20863;-54
2021/01/11 03:17:43;;;;;;;39.97;20.70;;;-4.00;99.90;;;;;;5011116;28;20391;-54
2021/01/11 03:20:10;;;;;;;37.30;19.23;;;-4.00;99.90;;;;;;5012081;28;20497;-55
2021/01/11 03:22:36;;;;;;;35.60;18.98;;;-4.00;99.90;;;;;;5010128;28;20412;-54
2021/01/11 03:25:02;;;;;;;38.28;19.38;;;-4.10;99.90;;;;;;5011656;28;20727;-54
2021/01/11 03:27:28;;;;;;;40.03;20.30;;;-4.20;99.90;;;;;;5010238;28;20871;-54
2021/01/11 03:29:54;;;;;;;35.00;19.07;;;-4.20;99.90;;;;;;5011492;28;20430;-54
2021/01/11 03:32:19;;;;;;;38.93;19.53;;;-4.10;99.90;;;;;;5011296;28;20404;-54
2021/01/11 03:34:45;;;;;;;37.80;19.08;;;-4.10;99.90;;;;;;5009800;28;20742;-54
2021/01/11 03:37:11;;;;;;;38.25;19.00;;;-4.10;99.90;;;;;;5011599;28;20397;-54
2021/01/11 03:39:36;;;;;;;38.20;19.08;;;-4.00;99.90;;;;;;5009453;28;20495;-54
2021/01/11 03:42:02;;;;;;;39.20;18.83;;;-4.10;99.90;;;;;;5011215;28;20393;-55
2021/01/11 03:44:27;;;;;;;35.37;17.37;;;-1.30;99.90;;;;;;5009620;28;20392;-54
2021/01/11 03:46:53;;;;;;;32.85;17.50;;;-4.00;99.90;;;;;;5009848;28;20385;-55
2021/01/11 03:49:19;;;;;;;35.03;18.13;;;-4.00;99.90;;;;;;5011560;28;20381;-54
2021/01/11 03:51:44;;;;;;;32.83;17.63;;;-4.00;99.90;;;;;;5009450;28;20396;-55
2021/01/11 03:54:10;;;;;;;35.30;17.03;;;-4.10;99.90;;;;;;5011295;28;20411;-55
2021/01/11 03:56:35;;;;;;;31.90;17.20;;;-4.20;99.90;;;;;;5009200;28;20484;-54
2021/01/11 03:59:01;;;;;;;37.50;18.10;;;-4.10;99.90;;;;;;5011506;28;20385;-54
2021/01/11 04:01:27;;;;;;;31.40;16.88;;;-4.10;99.90;;;;;;5010758;28;20397;-54
2021/01/11 04:03:53;;;;;;;35.58;18.08;;;-4.20;99.90;;;;;;5011094;28;20401;-55
2021/01/11 04:06:23;;;;;;;34.42;18.02;;;-4.10;99.90;;;;;;5011312;28;20743;-54
2021/01/11 04:08:49;;;;;;;32.83;16.60;;;-4.10;99.90;;;;;;5010821;28;20428;-54
2021/01/11 04:11:20;;;;;;;34.95;17.00;;;-4.10;99.90;;;;;;5011354;28;20415;-54
2021/01/11 04:13:47;;;;;;;33.03;18.00;;;-4.10;99.90;;;;;;5010583;28;20704;-54
2021/01/11 04:16:13;;;;;;;34.05;17.20;;;-4.20;99.90;;;;;;5010898;28;20607;-54
2021/01/11 04:18:39;;;;;;;34.42;17.88;;;-4.20;99.90;;;;;;5010325;28;20851;-54
2021/01/11 04:21:04;;;;;;;33.58;17.90;;;-4.20;99.90;;;;;;5011107;28;20475;-54
2021/01/11 04:23:30;;;;;;;31.92;17.05;;;-4.20;99.90;;;;;;5010452;28;20409;-54
2021/01/11 04:25:56;;;;;;;37.67;18.57;;;-4.20;99.90;;;;;;5011062;28;21092;-54
2021/01/11 04:28:21;;;;;;;34.97;18.73;;;-4.00;99.90;;;;;;5011106;28;20877;-54
2021/01/11 04:30:47;;;;;;;39.45;19.60;;;-4.30;99.90;;;;;;5010209;28;20630;-54
2021/01/11 04:33:12;;;;;;;39.10;18.85;;;-4.30;99.90;;;;;;5010780;28;20427;-54
2021/01/11 04:35:38;;;;;;;37.73;17.70;;;-4.40;99.90;;;;;;5009938;28;20422;-54
2021/01/11 04:38:04;;;;;;;41.60;20.20;;;-4.50;99.90;;;;;;5010970;28;20391;-55
2021/01/11 04:40:29;;;;;;;38.20;19.20;;;-4.40;99.90;;;;;;5010052;28;20412;-54
2021/01/11 04:43:04;;;;;;;41.63;20.58;;;-3.90;99.90;;;;;;5010916;28;20843;-54
2021/01/11 04:45:29;;;;;;;31.93;18.53;;;-4.40;99.90;;;;;;5009893;28;20388;-54
2021/01/11 04:47:59;;;;;;;37.20;18.50;;;-4.40;99.90;;;;;;5010457;28;20385;-54
2021/01/11 04:50:26;;;;;;;35.75;16.90;;;-4.40;99.90;;;;;;5010410;28;20873;-54
2021/01/11 04:52:52;;;;;;;34.30;17.60;;;-4.40;99.90;;;;;;5010684;28;20423;-55
2021/01/11 04:55:19;;;;;;;34.25;17.15;;;-4.40;99.90;;;;;;5010796;28;20388;-54
2021/01/11 04:57:56;;;;;;;33.03;17.10;;;-4.30;99.90;;;;;;5010043;28;20399;-54
2021/01/11 05:00:30;;;;;;;36.97;17.50;;;-4.20;99.90;;;;;;5010821;28;20385;-55
2021/01/11 05:03:04;;;;;;;34.33;17.30;;;-1.80;99.90;;;;;;5010780;28;20403;-55
2021/01/11 05:05:34;;;;;;;33.35;17.00;;;-4.30;99.90;;;;;;5009109;28;20392;-54
2021/01/11 05:08:00;;;;;;;33.95;16.33;;;-4.40;99.90;;;;;;5010459;28;20475;-55
2021/01/11 05:10:36;;;;;;;30.67;15.97;;;-4.50;99.90;;;;;;5009962;28;20416;-53
2021/01/11 05:13:07;;;;;;;27.83;15.05;;;-4.50;99.90;;;;;;5010287;28;20472;-55
2021/01/11 05:15:34;;;;;;;31.70;16.30;;;-4.50;99.90;;;;;;5009532;28;20554;-54
2021/01/11 05:18:00;;;;;;;36.17;17.10;;;-4.50;99.90;;;;;;5010229;28;20395;-54
2021/01/11 05:20:33;;;;;;;31.70;16.33;;;-4.40;99.90;;;;;;5009803;28;20440;-54
2021/01/11 05:23:09;;;;;;;32.00;16.42;;;-5.30;99.90;;;;;;5008369;28;20401;-55
2021/01/11 05:25:36;;;;;;;32.90;16.50;;;-4.30;99.90;;;;;;4989261;28;20738;-54
2021/01/11 05:28:11;;;;;;;27.63;16.58;;;-3.50;99.90;;;;;;4990552;28;20375;-54
2021/01/11 05:30:49;;;;;;;30.70;16.03;;;-4.40;99.90;;;;;;4989037;28;20784;-54
2021/01/11 05:33:20;;;;;;;28.83;15.93;;;-4.50;99.90;;;;;;4990388;28;20375;-54
2021/01/11 05:35:47;;;;;;;31.90;16.23;;;-4.50;99.90;;;;;;4989849;28;20442;-54
2021/01/11 05:38:20;;;;;;;29.38;16.00;;;-4.40;99.90;;;;;;4990076;28;20983;-54
2021/01/11 05:40:47;;;;;;;31.50;16.48;;;-4.40;99.90;;;;;;4992991;28;20389;-54
2021/01/11 05:43:20;;;;;;;31.45;16.63;;;-4.40;99.90;;;;;;4999634;28;20387;-54
2021/01/11 05:45:45;;;;;;;30.80;16.98;;;-4.30;99.90;;;;;;5004151;28;20396;-54
2021/01/11 05:48:12;;;;;;;39.57;17.70;;;-4.30;99.90;;;;;;5000862;28;20389;-54
2021/01/11 05:50:39;;;;;;;32.83;16.30;;;-4.30;99.90;;;;;;5009415;28;20672;-54
2021/01/11 05:53:16;;;;;;;31.03;16.13;;;-4.30;99.90;;;;;;4997899;28;20477;-54
2021/01/11 05:55:43;;;;;;;31.25;16.63;;;-4.20;99.90;;;;;;5008978;28;20417;-54
2021/01/11 05:58:08;;;;;;;34.30;16.80;;;-4.30;99.90;;;;;;5002323;28;20415;-55
2021/01/11 06:00:36;;;;;;;35.93;17.60;;;-4.20;99.90;;;;;;5007117;28;20731;-55
2021/01/11 06:03:04;;;;;;;36.63;18.10;;;-4.20;99.90;;;;;;5008745;28;20910;-55
2021/01/11 06:05:31;;;;;;;33.53;18.17;;;-4.20;99.90;;;;;;5007282;28;20458;-54
2021/01/11 06:07:58;;;;;;;31.37;16.53;;;-4.20;99.90;;;;;;5004965;28;20395;-54
2021/01/11 06:10:25;;;;;;;33.33;17.52;;;-4.20;99.90;;;;;;5007388;28;20424;-54
2021/01/11 06:12:51;;;;;;;33.63;17.20;;;-4.30;99.90;;;;;;5001953;28;20401;-54
2021/01/11 06:15:21;;;;;;;33.55;17.40;;;-4.30;99.90;;;;;;5007179;28;20388;-53
2021/01/11 06:17:49;;;;;;;34.33;17.73;;;-4.30;99.90;;;;;;5003272;28;20408;-54
2021/01/11 06:20:17;;;;;;;38.30;19.13;;;-4.20;99.90;;;;;;5008395;28;20474;-54
2021/01/11 06:22:45;;;;;;;41.60;22.40;;;-4.10;99.90;;;;;;5006148;28;20397;-54
2021/01/11 06:25:17;;;;;;;44.67;22.05;;;-4.10;99.90;;;;;;5008480;28;20389;-56
2021/01/11 06:27:58;;;;;;;45.00;23.23;;;-4.00;99.90;;;;;;5005279;28;20408;-55
2021/01/11 06:30:36;;;;;;;39.27;22.50;;;-4.00;99.90;;;;;;5003648;28;20767;-54
2021/01/11 06:33:24;;;;;;;32.95;19.10;;;-4.10;99.90;;;;;;4999877;28;20412;-54
2021/01/11 06:35:52;;;;;;;36.72;19.00;;;-4.20;99.90;;;;;;5002334;28;20420;-54
2021/01/11 06:38:28;;;;;;;33.77;18.00;;;-4.20;99.90;;;;;;5005194;28;20443;-55
2021/01/11 06:41:10;;;;;;;28.77;18.00;;;-4.10;99.90;;;;;;5007850;28;20388;-54
2021/01/11 06:43:41;;;;;;;36.03;17.40;;;-4.20;99.90;;;;;;5001101;28;20882;-54
2021/01/11 06:46:07;;;;;;;32.95;18.35;;;-4.20;99.90;;;;;;4997145;28;20798;-54
2021/01/11 06:48:34;;;;;;;36.03;17.23;;;-4.20;99.90;;;;;;5005398;28;20479;-54
2021/01/11 06:51:07;;;;;;;31.95;17.00;;;-4.20;99.90;;;;;;5009080;28;20440;-55
2021/01/11 06:53:34;;;;;;;34.75;17.00;;;-4.20;99.90;;;;;;5007970;28;20404;-54
2021/01/11 06:56:11;;;;;;;30.15;16.45;;;-4.20;99.90;;;;;;5005860;28;20895;-54
2021/01/11 06:58:38;;;;;;;33.28;17.27;;;-5.80;99.90;;;;;;5007041;28;20420;-54
2021/01/11 07:01:11;;;;;;;32.35;17.17;;;-4.30;99.90;;;;;;5010383;28;20400;-54
2021/01/11 07:03:49;;;;;;;33.78;17.13;;;-4.30;99.90;;;;;;5008786;28;20404;-54
2021/01/11 07:06:39;;;;;;;35.50;17.42;;;-4.50;99.90;;;;;;5009010;28;20523;-55
2021/01/11 07:09:13;;;;;;;33.65;17.02;;;-4.40;99.90;;;;;;5004433;28;20420;-54
2021/01/11 07:11:43;;;;;;;37.88;18.00;;;-4.40;99.90;;;;;;5009067;28;20416;-54
2021/01/11 07:14:10;;;;;;;38.10;17.67;;;-4.40;99.90;;;;;;5011395;28;20847;-55
2021/01/11 07:16:50;;;;;;;38.85;20.02;;;-2.80;99.90;;;;;;5001323;28;20426;-54
2021/01/11 07:19:36;;;;;;;40.83;20.23;;;-4.50;99.90;;;;;;5006686;28;20901;-55
2021/01/11 07:22:04;;;;;;;34.40;17.90;;;-4.40;99.90;;;;;;5000819;28;20867;-54
2021/01/11 07:24:30;;;;;;;36.78;18.13;;;-4.40;99.90;;;;;;5008871;28;20405;-54
2021/01/11 07:26:56;;;;;;;35.97;18.55;;;-4.40;99.90;;;;;;5010930;28;20399;-55
2021/01/11 07:29:21;;;;;;;34.55;17.80;;;-4.30;99.90;;;;;;5010603;28;20476;-55
2021/01/11 07:31:48;;;;;;;36.30;17.20;;;-4.30;99.90;;;;;;5006879;28;20516;-55
2021/01/11 07:34:21;;;;;;;39.87;19.60;;;-4.30;99.90;;;;;;5008780;28;20490;-55
2021/01/11 07:36:49;;;;;;;39.35;20.63;;;-3.40;99.90;;;;;;5005234;28;20429;-54
2021/01/11 07:39:19;;;;;;;44.60;21.73;;;-2.20;99.90;;;;;;5010208;28;20405;-55
2021/01/11 07:42:06;;;;;;;46.67;23.25;;;-4.10;99.90;;;;;;5008069;28;20413;-54
2021/01/11 07:44:36;;;;;;;43.00;22.05;;;-4.00;99.90;;;;;;5008790;28;20475;-55
2021/01/11 07:47:12;;;;;;;40.97;21.57;;;-3.90;99.90;;;;;;5002421;28;21087;-55
2021/01/11 07:49:44;;;;;;;44.97;21.38;;;-3.80;99.90;;;;;;5005480;28;20401;-55
2021/01/11 07:52:17;;;;;;;42.58;22.00;;;-3.90;99.90;;;;;;5008773;28;20404;-55
2021/01/11 07:54:44;;;;;;;42.63;21.27;;;-3.90;99.90;;;;;;5009392;28;20786;-55
2021/01/11 07:57:14;;;;;;;41.65;20.98;;;-3.90;99.90;;;;;;5008829;28;20452;-55
2021/01/11 07:59:40;;;;;;;41.47;22.17;;;-3.90;99.90;;;;;;5007825;28;20408;-55
2021/01/11 08:02:13;;;;;;;39.53;20.40;;;-2.90;99.90;;;;;;5009681;28;20863;-55
2021/01/11 08:04:40;;;;;;;41.70;20.33;;;-4.00;99.90;;;;;;5008317;28;20404;-55
2021/01/11 08:07:08;;;;;;;41.80;21.60;;;-3.80;99.90;;;;;;5006506;28;20402;-54
2021/01/11 08:09:35;;;;;;;42.28;21.27;;;-3.70;99.90;;;;;;5009226;28;20420;-55
2021/01/11 08:12:17;;;;;;;37.40;20.53;;;-3.60;99.90;;;;;;5006979;28;20878;-55
2021/01/11 08:14:44;;;;;;;43.87;21.63;;;-3.60;99.90;;;;;;5003528;28;20422;-55
2021/01/11 08:17:24;;;;;;;43.53;22.42;;;-0.90;99.90;;;;;;4999217;28;20909;-55
2021/01/11 08:19:52;;;;;;;40.90;21.50;;;-3.40;99.90;;;;;;5004555;28;20916;-55
2021/01/11 08:22:20;;;;;;;42.90;21.90;;;-3.40;99.90;;;;;;5005713;28;20850;-55
2021/01/11 08:24:50;;;;;;;40.20;20.10;;;-3.40;99.90;;;;;;5007176;28;20508;-55
2021/01/11 08:27:27;;;;;;;41.53;21.40;;;-3.50;99.90;;;;;;5008377;28;20820;-55
2021/01/11 08:29:53;;;;;;;42.10;21.30;;;-3.50;99.90;;;;;;5024942;28;20796;-55
2021/01/11 08:32:20;;;;;;;45.50;23.30;;;-1.30;99.90;;;;;;5003290;28;20416;-59
2021/01/11 08:34:46;;;;;;;37.35;20.58;;;-3.30;99.90;;;;;;5008864;28;21004;-55
2021/01/11 08:37:30;;;;;;;37.13;18.60;;;-3.40;99.90;;;;;;5009324;28;20500;-54
2021/01/11 08:39:59;;;;;;;38.63;21.00;;;-3.40;99.90;;;;;;5008390;28;20405;-55
2021/01/11 08:42:27;;;;;;;40.17;21.70;;;-3.30;99.90;;;;;;5006915;28;20766;-54
2021/01/11 08:44:53;;;;;;;40.72;20.02;;;-3.00;99.90;;;;;;5005473;28;20432;-55
2021/01/11 08:47:27;;;;;;;35.88;19.15;;;-2.90;99.90;;;;;;5002830;28;20407;-54
2021/01/11 08:49:57;;;;;;;35.15;19.10;;;-2.70;99.90;;;;;;5006872;28;20400;-55
2021/01/11 08:52:28;;;;;;;38.13;19.10;;;-2.50;99.90;;;;;;5008345;28;20877;-55
2021/01/11 08:54:54;;;;;;;32.00;17.08;;;-1.70;99.90;;;;;;5003940;28;20515;-55
2021/01/11 08:57:20;;;;;;;35.78;17.90;;;2.80;99.90;;;;;;5006740;28;20783;-55
2021/01/11 08:59:50;;;;;;;30.25;16.55;;;1.10;99.90;;;;;;5008551;28;20933;-56
2021/01/11 09:02:26;;;;;;;32.15;16.65;;;3.50;99.90;;;;;;5007377;28;20412;-56
2021/01/11 09:04:52;;;;;;;30.75;16.90;;;3.80;99.90;;;;;;5006202;28;20396;-56
2021/01/11 09:07:29;;;;;;;31.48;17.10;;;4.80;99.90;;;;;;5004560;28;20421;-56
2021/01/11 09:09:55;;;;;;;27.27;15.80;;;5.60;99.90;;;;;;5006222;28;20512;-56
2021/01/11 09:12:34;;;;;;;25.93;16.10;;;6.00;99.70;;;;;;5006622;28;20909;-56
2021/01/11 09:15:01;;;;;;;26.90;15.93;;;6.60;96.60;;;;;;5007735;28;20389;-56
2021/01/11 09:17:31;;;;;;;29.35;16.83;;;5.90;96.80;;;;;;5001244;28;20436;-55
2021/01/11 09:20:05;;;;;;;28.92;17.27;;;6.10;96.40;;;;;;4996559;28;20443;-55
2021/01/11 09:22:34;;;;;;;27.65;16.40;;;6.40;96.60;;;;;;5003817;28;20494;-55
2021/01/11 09:25:00;;;;;;;29.25;17.80;;;7.20;94.80;;;;;;5005120;28;20408;-56
2021/01/11 09:27:26;;;;;;;26.63;16.60;;;7.60;93.20;;;;;;5007912;28;20397;-55
2021/01/11 09:29:52;;;;;;;29.90;17.37;;;7.60;91.90;;;;;;5005521;28;20400;-56
2021/01/11 09:32:18;;;;;;;30.75;17.00;;;7.80;91.90;;;;;;5006563;28;20483;-56
2021/01/11 09:34:44;;;;;;;29.10;17.50;;;8.10;90.20;;;;;;5007108;28;20401;-56
2021/01/11 09:37:11;;;;;;;25.85;16.25;;;7.80;90.00;;;;;;5005608;28;20895;-56
2021/01/11 09:39:37;;;;;;;27.05;16.92;;;7.70;89.90;;;;;;5005184;28;20412;-56
2021/01/11 09:42:03;;;;;;;25.95;15.82;;;8.30;90.00;;;;;;4998294;28;21179;-56
2021/01/11 09:44:30;;;;;;;28.67;16.50;;;8.80;86.50;;;;;;5007998;28;20742;-56
2021/01/11 09:46:57;;;;;;;29.30;15.82;;;8.50;84.30;;;;;;4996907;28;20413;-56
2021/01/11 09:49:23;;;;;;;27.55;15.90;;;8.40;85.00;;;;;;5006737;28;20381;-56
2021/01/11 09:51:50;;;;;;;25.23;15.60;;;7.90;87.60;;;;;;5006493;28;20494;-57
2021/01/11 09:54:15;;;;;;;27.08;16.25;;;8.60;85.50;;;;;;4999180;28;21030;-57
2021/01/11 09:56:41;;;;;;;26.50;16.10;;;8.80;84.70;;;;;;5005879;28;20421;-56
2021/01/11 09:59:08;;;;;;;26.55;15.60;;;8.60;81.80;;;;;;5005583;28;20494;-57
2021/01/11 10:01:43;;;;;;;24.07;15.67;;;8.30;86.20;;;;;;5005461;28;20404;-57
2021/01/11 10:04:11;;;;;;;26.67;15.55;;;8.80;85.60;;;;;;5003488;28;20417;-57
2021/01/11 10:06:48;;;;;;;23.50;14.88;;;9.70;81.20;;;;;;5005921;28;20485;-57
2021/01/11 10:09:18;;;;;;;25.35;14.80;;;10.30;73.50;;;;;;5003238;28;20901;-57
2021/01/11 10:11:54;;;;;;;25.50;17.00;;;7.80;79.80;;;;;;5004011;28;20382;-58
2021/01/11 10:14:20;;;;;;;26.92;17.13;;;7.50;81.90;;;;;;5005916;28;20423;-57
2021/01/11 10:16:47;;;;;;;25.70;15.90;;;7.20;86.30;;;;;;5000356;28;20487;-57
2021/01/11 10:19:23;;;;;;;26.98;17.88;;;7.60;88.50;;;;;;5008594;28;20405;-55
2021/01/11 10:21:49;;;;;;;23.05;14.05;;;8.50;83.40;;;;;;5005959;28;20874;-55
2021/01/11 10:24:17;;;;;;;27.03;15.13;;;8.90;82.20;;;;;;5004833;28;20411;-54
2021/01/11 10:26:43;;;;;;;26.60;14.75;;;9.20;79.30;;;;;;5008961;28;20400;-55
2021/01/11 10:29:11;;;;;;;24.00;14.30;;;10.00;75.20;;;;;;5010965;28;20385;-55
2021/01/11 10:31:36;;;;;;;23.00;14.63;;;9.40;77.30;;;;;;5008740;28;20984;-54
2021/01/11 10:34:03;;;;;;;23.77;14.27;;;9.00;77.80;;;;;;5008744;28;20421;-55
2021/01/11 10:36:43;;;;;;;22.13;14.68;;;8.70;79.50;;;;;;5010266;28;20424;-55
2021/01/11 10:39:09;;;;;;;24.10;13.40;;;8.50;80.40;;;;;;5000362;28;20860;-55
2021/01/11 10:41:35;;;;;;;24.63;14.82;;;8.40;81.40;;;;;;5008511;28;20411;-55
2021/01/11 10:44:01;;;;;;;26.98;15.50;;;8.70;80.60;;;;;;5008545;28;20397;-54
2021/01/11 10:46:26;;;;;;;31.20;16.10;;;8.40;81.20;;;;;;5000261;28;20409;-53
2021/01/11 10:48:53;;;;;;;25.75;14.90;;;8.20;82.30;;;;;;5002895;28;20462;-57
2021/01/11 10:51:21;;;;;;;27.20;16.02;;;7.90;81.50;;;;;;5003054;28;20406;-54
2021/01/11 10:53:46;;;;;;;23.25;13.98;;;8.10;82.60;;;;;;5001364;28;20398;-54
2021/01/11 10:56:12;;;;;;;29.55;15.82;;;8.70;81.00;;;;;;5004157;28;20420;-54
2021/01/11 10:58:38;;;;;;;27.27;15.23;;;8.50;79.90;;;;;;5001051;28;20431;-54
2021/01/11 11:01:12;;;;;;;26.58;15.07;;;8.30;80.20;;;;;;5001640;28;20416;-54
2021/01/11 11:03:38;;;;;;;24.67;14.70;;;8.20;81.10;;;;;;4999339;28;20447;-57
2021/01/11 11:06:03;;;;;;;26.50;16.20;;;7.60;83.50;;;;;;5005344;28;20409;-57
2021/01/11 11:08:29;;;;;;;26.63;15.85;;;7.60;87.10;;;;;;5005825;28;20404;-53
2021/01/11 11:10:55;;;;;;;25.77;15.90;;;7.50;83.90;;;;;;5008101;28;20523;-54
2021/01/11 11:13:20;;;;;;;27.20;17.20;;;8.00;82.70;;;;;;5008606;28;20794;-55
2021/01/11 11:15:47;;;;;;;26.00;15.10;;;8.90;79.30;;;;;;5002645;28;20539;-54
2021/01/11 11:18:13;;;;;;;26.95;15.50;;;9.10;80.20;;;;;;5006669;28;20823;-54
2021/01/11 11:20:40;;;;;;;28.98;16.27;;;8.70;77.20;;;;;;5009788;28;20393;-57
2021/01/11 11:23:06;;;;;;;27.40;16.33;;;8.10;79.50;;;;;;5008547;28;20404;-55
2021/01/11 11:25:33;;;;;;;27.65;16.92;;;7.70;83.10;;;;;;5009544;28;20396;-55
2021/01/11 11:27:58;;;;;;;26.23;16.77;;;7.70;84.90;;;;;;5008719;28;20567;-55
2021/01/11 11:30:25;;;;;;;27.58;16.85;;;8.10;82.70;;;;;;5001802;28;20525;-55
2021/01/11 11:32:52;;;;;;;27.40;15.40;;;8.10;80.70;;;;;;5004453;28;20404;-55
2021/01/11 11:35:19;;;;;;;26.02;16.02;;;8.10;79.70;;;;;;4998271;28;20885;-56
2021/01/11 11:37:46;;;;;;;23.17;15.30;;;8.10;79.00;;;;;;5008888;28;20416;-56
2021/01/11 11:40:14;;;;;;;25.65;14.13;;;7.60;82.50;;;;;;5009611;28;20447;-57
2021/01/11 11:42:40;;;;;;;25.53;14.27;;;6.80;82.20;;;;;;5009580;28;20874;-57
2021/01/11 11:45:08;;;;;;;28.63;15.07;;;7.00;87.50;;;;;;5008760;28;20801;-56
2021/01/11 11:47:35;;;;;;;27.88;15.02;;;5.30;90.50;;;;;;5000946;28;20396;-55
2021/01/11 11:50:02;;;;;;;28.77;15.05;;;5.10;91.60;;;;;;5004681;28;20420;-55
2021/01/11 11:52:28;;;;;;;31.00;15.18;;;4.30;92.20;;;;;;5008956;28;20393;-54
2021/01/11 11:54:54;;;;;;;26.65;14.85;;;4.10;94.60;;;;;;5007698;28;20419;-54
2021/01/11 11:57:20;;;;;;;30.00;16.10;;;3.80;96.10;;;;;;5008999;28;20417;-55
2021/01/11 11:59:48;;;;;;;27.33;14.73;;;5.40;97.70;;;;;;5007961;28;20428;-55
2021/01/11 12:02:14;;;;;;;24.73;13.07;;;3.40;98.90;;;;;;5009469;28;21231;-55
2021/01/11 12:04:41;;;;;;;27.95;15.90;;;6.30;99.10;;;;;;5008826;28;20483;-54
2021/01/11 12:07:07;;;;;;;31.13;16.20;;;3.70;96.80;;;;;;5008909;28;20403;-55
2021/01/11 12:09:32;;;;;;;27.27;16.40;;;3.60;98.30;;;;;;5007577;28;20424;-55
2021/01/11 12:11:59;;;;;;;28.58;14.68;;;6.30;99.60;;;;;;5008429;28;20424;-54
2021/01/11 12:14:25;;;;;;;31.10;15.30;;;3.40;98.90;;;;;;5009286;28;20539;-54
2021/01/11 12:16:51;;;;;;;28.23;14.80;;;4.60;99.90;;;;;;5000976;28;20449;-55
2021/01/11 12:19:17;;;;;;;29.57;14.53;;;3.00;99.60;;;;;;5006599;28;20484;-54
2021/01/11 12:21:44;;;;;;;33.22;16.60;;;3.50;99.90;;;;;;5008398;28;20387;-55
2021/01/11 12:24:10;;;;;;;32.05;16.33;;;3.20;99.90;;;;;;5005255;28;20445;-55
2021/01/11 12:26:40;;;;;;;30.00;15.00;;;3.30;99.90;;;;;;5005025;28;20453;-54
2021/01/11 12:29:07;;;;;;;30.77;15.20;;;5.30;99.90;;;;;;5007529;28;20420;-54
2021/01/11 12:31:33;;;;;;;29.05;14.68;;;3.30;99.90;;;;;;5005063;28;20412;-55
2021/01/11 12:33:58;;;;;;;29.87;15.50;;;3.50;99.90;;;;;;5008182;28;20845;-55
2021/01/11 12:36:26;;;;;;;28.58;15.35;;;5.50;99.90;;;;;;5007479;28;20416;-54
2021/01/11 12:38:55;;;;;;;26.45;14.98;;;3.20;99.90;;;;;;5007258;28;20925;-55